createdAt,value
2023-04-05T00:01:59.108Z,46.01
2023-04-05T00:04:29.106Z,45.95
2023-04-05T00:06:59.358Z,46.30
2023-04-05T00:09:28.935Z,46.09
2023-04-05T00:11:58.071Z,46.22
2023-04-05T00:14:27.343Z,45.88
2023-04-05T00:16:55.525Z,46.03
2023-04-05T00:19:23.696Z,46.24
2023-04-05T00:21:54.785Z,46.21
2023-04-05T00:24:24.796Z,46.20
2023-04-05T00:26:53.941Z,45.75
2023-04-05T00:29:22.128Z,46.20
2023-04-05T00:32:10.210Z,46.41
2023-04-05T00:34:39.969Z,46.14
2023-04-05T00:37:09.281Z,46.36
2023-04-05T00:51:06.351Z,46.61
2023-04-05T00:57:09.414Z,46.49
2023-04-05T01:02:49.205Z,46.28
2023-04-05T01:05:33.046Z,46.20
2023-04-05T01:11:26.429Z,46.39
2023-04-05T01:14:08.239Z,46.49
2023-04-05T01:16:45.774Z,46.53
2023-04-05T01:40:44.385Z,46.46
2023-04-05T01:58:39.341Z,46.72
2023-04-05T02:01:09.946Z,46.33
2023-04-05T02:06:33.030Z,46.55
2023-04-05T02:09:04.087Z,46.38
2023-04-05T02:11:35.889Z,46.30
2023-04-05T02:14:11.323Z,46.48
2023-04-05T02:17:09.306Z,46.59
2023-04-05T02:19:54.886Z,46.42
2023-04-05T02:34:59.038Z,46.41
2023-04-05T03:15:59.393Z,46.63
2023-04-05T03:18:30.880Z,46.75
2023-04-05T03:21:03.654Z,46.70
2023-04-05T03:23:48.815Z,46.73
2023-04-05T03:26:40.710Z,46.83
2023-04-05T03:35:46.821Z,47.08
2023-04-05T03:38:19.610Z,47.03
2023-04-05T03:40:57.516Z,47.04
2023-04-05T03:43:30.730Z,47.26
2023-04-05T03:48:58.274Z,47.38
2023-04-05T03:51:49.771Z,47.32
2023-04-05T04:03:11.691Z,47.33
2023-04-05T04:05:46.898Z,47.40
2023-04-05T04:08:30.325Z,47.86
2023-04-05T04:11:00.626Z,47.86
2023-04-05T04:13:31.349Z,47.77
2023-04-05T04:16:00.105Z,47.91
2023-04-05T04:18:29.068Z,48.46
2023-04-05T04:20:58.790Z,48.10
2023-04-05T04:23:29.232Z,48.32
2023-04-05T04:25:58.592Z,48.31
2023-04-05T04:28:28.307Z,48.37
2023-04-05T04:30:57.100Z,48.45
2023-04-05T04:33:26.621Z,48.37
2023-04-05T04:35:55.830Z,48.53
2023-04-05T04:38:26.436Z,48.90
2023-04-05T04:40:58.537Z,48.64
2023-04-05T04:43:29.424Z,48.83
2023-04-05T04:45:58.525Z,48.70
2023-04-05T04:48:26.852Z,48.83
2023-04-05T04:51:09.940Z,48.98
2023-04-05T04:53:39.994Z,48.95
2023-04-05T04:56:11.619Z,48.99
2023-04-05T04:58:40.424Z,48.97
2023-04-05T05:01:11.615Z,49.30
2023-04-05T05:03:40.524Z,49.14
2023-04-05T05:06:10.160Z,49.34
2023-04-05T05:08:38.615Z,49.28
2023-04-05T05:11:09.691Z,49.55
2023-04-05T05:13:37.757Z,49.54
2023-04-05T05:16:07.418Z,49.63
2023-04-05T05:18:35.764Z,49.56
2023-04-05T05:21:03.765Z,49.69
2023-04-05T05:23:31.969Z,49.68
2023-04-05T05:26:00.601Z,49.72
2023-04-05T05:28:30.562Z,49.83
2023-04-05T05:30:58.697Z,49.93
2023-04-05T05:33:27.244Z,49.97
2023-04-05T05:35:56.730Z,50.09
2023-04-05T05:38:25.044Z,50.01
2023-04-05T05:40:57.245Z,49.94
2023-04-05T05:43:25.308Z,50.37
2023-04-05T05:45:54.940Z,50.33
2023-04-05T05:48:23.025Z,50.08
2023-04-05T05:50:51.014Z,50.11
2023-04-05T05:53:19.145Z,50.09
2023-04-05T05:55:47.369Z,50.33
2023-04-05T05:58:16.012Z,50.43
2023-04-05T06:00:44.201Z,50.67
2023-04-05T06:03:13.941Z,50.87
2023-04-05T06:05:43.873Z,50.56
2023-04-05T06:08:11.824Z,50.68
2023-04-05T06:10:40.114Z,50.63
2023-04-05T06:13:08.556Z,50.67
2023-04-05T06:15:37.668Z,50.88
2023-04-05T06:18:05.811Z,51.01
2023-04-05T06:20:35.827Z,51.09
2023-04-05T06:23:03.917Z,50.96
2023-04-05T06:25:32.033Z,51.13
2023-04-05T06:28:00.193Z,51.08
2023-04-05T06:30:28.282Z,50.89
2023-04-05T06:32:56.594Z,51.05
2023-04-05T06:35:26.382Z,50.99
2023-04-05T06:37:55.867Z,51.14
2023-04-05T06:40:23.965Z,51.27
2023-04-05T06:42:52.014Z,51.08
2023-04-05T06:45:20.737Z,51.30
2023-04-05T06:47:48.858Z,51.38
2023-04-05T06:50:16.919Z,51.38
2023-04-05T06:52:44.980Z,51.26
2023-04-05T06:55:46.891Z,51.47
2023-04-05T06:58:15.033Z,51.06
2023-04-05T07:00:55.401Z,51.37
2023-04-05T07:03:23.844Z,51.34
2023-04-05T07:05:53.641Z,51.42
2023-04-05T07:08:22.637Z,51.40
2023-04-05T07:10:57.162Z,51.32
2023-04-05T07:13:25.890Z,51.14
2023-04-05T07:16:00.701Z,51.49
2023-04-05T07:18:30.233Z,51.50
2023-04-05T07:21:02.143Z,51.60
2023-04-05T07:23:30.987Z,51.70
2023-04-05T07:26:05.903Z,51.91
2023-04-05T07:28:35.623Z,51.62
2023-04-05T07:31:04.474Z,51.71
2023-04-05T07:33:32.906Z,51.62
2023-04-05T07:36:01.268Z,51.53
2023-04-05T07:38:30.187Z,51.70
2023-04-05T07:40:58.950Z,51.78
2023-04-05T07:43:28.499Z,51.81
2023-04-05T07:46:03.225Z,51.90
2023-04-05T07:48:31.827Z,51.71
2023-04-05T07:51:05.683Z,51.97
2023-04-05T07:53:34.382Z,51.91
2023-04-05T07:56:05.774Z,51.78
2023-04-05T07:58:40.882Z,51.85
2023-04-05T08:01:10.448Z,51.94
2023-04-05T08:03:40.517Z,52.03
2023-04-05T08:06:12.650Z,52.08
2023-04-05T08:08:41.335Z,52.04
2023-04-05T08:11:11.256Z,52.23
2023-04-05T08:13:42.650Z,51.91
2023-04-05T08:16:15.966Z,51.96
2023-04-05T08:41:25.974Z,52.60
2023-04-05T08:44:03.274Z,52.43
2023-04-05T08:46:33.995Z,52.51
2023-04-05T08:49:23.672Z,52.66
2023-04-05T08:51:52.910Z,52.56
2023-04-05T08:54:21.562Z,52.76
2023-04-05T08:56:55.876Z,52.63
2023-04-05T08:59:27.414Z,52.58
2023-04-05T09:01:58.698Z,52.76
2023-04-05T09:04:32.162Z,52.63
2023-04-05T09:07:03.205Z,52.83
2023-04-05T09:09:37.287Z,52.83
2023-04-05T09:12:08.976Z,53.11
2023-04-05T09:14:39.194Z,53.26
2023-04-05T09:17:07.901Z,52.97
2023-04-05T09:19:36.226Z,53.10
2023-04-05T09:22:07.021Z,53.14
2023-04-05T09:24:40.949Z,53.22
2023-04-05T09:27:12.683Z,53.16
2023-04-05T09:29:42.132Z,53.18
2023-04-05T09:32:11.716Z,53.12
2023-04-05T09:34:43.587Z,53.12
2023-04-05T09:37:16.407Z,53.00
2023-04-05T09:39:45.436Z,53.17
2023-04-05T09:42:16.667Z,53.21
2023-04-05T09:44:57.322Z,53.45
2023-04-05T09:47:31.278Z,53.13
2023-04-05T09:50:00.444Z,52.97
2023-04-05T09:52:32.281Z,52.96
2023-04-05T09:55:03.295Z,52.90
2023-04-05T09:57:38.024Z,53.02
2023-04-05T10:00:10.254Z,53.02
2023-04-05T10:02:39.456Z,53.08
2023-04-05T10:05:09.051Z,52.75
2023-04-05T10:07:37.921Z,52.66
2023-04-05T10:10:06.645Z,52.60
2023-04-05T10:12:41.953Z,52.41
2023-04-05T10:15:11.251Z,52.63
2023-04-05T10:17:49.354Z,52.68
2023-04-05T10:20:20.248Z,52.76
2023-04-05T10:23:02.097Z,52.69
2023-04-05T10:25:43.994Z,52.92
2023-04-05T10:28:30.264Z,52.91
2023-04-05T10:31:06.962Z,52.83
2023-04-05T10:33:42.709Z,52.80
2023-04-05T10:36:18.769Z,52.93
2023-04-05T10:39:00.117Z,53.08
2023-04-05T10:41:28.687Z,53.21
2023-04-05T10:43:59.426Z,53.36
2023-04-05T10:46:28.585Z,53.67
2023-04-05T10:49:05.001Z,53.76
2023-04-05T10:51:35.570Z,53.68
2023-04-05T10:54:04.353Z,53.58
2023-04-05T10:56:33.475Z,53.42
2023-04-05T10:59:03.795Z,53.20
2023-04-05T11:01:34.309Z,52.68
2023-04-05T11:04:13.098Z,52.54
2023-04-05T11:06:41.518Z,52.08
2023-04-05T11:09:15.621Z,52.24
2023-04-05T11:11:45.314Z,51.83
2023-04-05T11:14:22.618Z,51.71
2023-04-05T11:16:53.605Z,51.61
2023-04-05T11:19:22.326Z,51.54
2023-04-05T11:22:02.496Z,51.59
2023-04-05T11:24:58.977Z,51.81
2023-04-05T11:27:28.657Z,51.75
2023-04-05T11:29:59.108Z,51.86
2023-04-05T11:32:41.434Z,51.96
2023-04-05T11:35:14.212Z,52.22
2023-04-05T11:38:07.200Z,52.30
2023-04-05T11:40:36.664Z,52.48
2023-04-05T11:43:07.985Z,52.61
2023-04-05T11:45:39.178Z,52.57
2023-04-05T11:48:10.978Z,52.62
2023-04-05T11:50:41.971Z,52.64
2023-04-05T11:53:12.554Z,52.79
2023-04-05T11:55:42.257Z,52.86
2023-04-05T11:58:14.676Z,52.82
2023-04-05T12:00:46.417Z,52.81
2023-04-05T12:03:15.653Z,52.93
2023-04-05T12:05:51.595Z,52.75
2023-04-05T12:08:20.334Z,52.89
2023-04-05T12:10:56.411Z,52.83
2023-04-05T12:13:31.529Z,53.09
2023-04-05T12:16:02.612Z,53.07
2023-04-05T12:18:33.170Z,53.24
2023-04-05T12:21:04.886Z,53.13
2023-04-05T12:23:35.274Z,53.18
2023-04-05T12:26:04.511Z,53.07
2023-04-05T12:28:54.253Z,53.05
2023-04-05T12:31:40.993Z,53.06
2023-04-05T12:34:10.555Z,53.33
2023-04-05T12:36:40.317Z,53.13
2023-04-05T12:39:11.970Z,53.11
2023-04-05T12:41:40.498Z,53.16
2023-04-05T12:44:14.043Z,53.13
2023-04-05T12:46:45.266Z,52.90
2023-04-05T12:49:14.144Z,52.81
2023-04-05T12:51:46.732Z,52.91
2023-04-05T12:54:17.102Z,52.86
2023-04-05T12:56:45.524Z,52.82
2023-04-05T12:59:14.147Z,52.82
2023-04-05T13:01:45.749Z,52.62
2023-04-05T13:04:16.457Z,52.82
2023-04-05T13:06:48.016Z,52.83
2023-04-05T13:09:16.397Z,52.90
2023-04-05T13:11:44.670Z,53.12
2023-04-05T13:14:12.816Z,53.10
2023-04-05T13:16:41.149Z,53.32
2023-04-05T13:19:11.170Z,53.15
2023-04-05T13:21:39.781Z,53.34
2023-04-05T13:24:08.873Z,53.23
2023-04-05T13:26:38.508Z,53.17
2023-04-05T13:29:07.425Z,53.29
2023-04-05T13:31:36.123Z,53.47
2023-04-05T13:34:04.466Z,53.20
2023-04-05T13:36:34.367Z,53.43
2023-04-05T13:39:02.564Z,53.57
2023-04-05T13:41:30.584Z,53.68
2023-04-05T13:44:01.112Z,53.79
2023-04-05T13:46:34.227Z,53.57
2023-04-05T13:49:02.286Z,53.81
2023-04-05T13:51:34.645Z,54.02
2023-04-05T13:54:06.350Z,53.97
2023-04-05T13:56:35.037Z,53.98
2023-04-05T13:59:17.510Z,54.11
2023-04-05T14:01:45.803Z,54.06
2023-04-05T14:04:14.126Z,54.10
2023-04-05T14:06:42.388Z,53.86
2023-04-05T14:09:12.458Z,54.07
2023-04-05T14:11:41.589Z,53.96
2023-04-05T14:14:10.114Z,53.87
2023-04-05T14:16:45.201Z,54.31
2023-04-05T14:19:18.168Z,54.42
2023-04-05T14:21:47.015Z,54.27
2023-04-05T14:30:28.738Z,54.32
2023-04-05T14:33:00.496Z,54.48
2023-04-05T15:21:02.511Z,55.57
2023-04-05T15:59:39.025Z,55.92
2023-04-05T16:03:15.880Z,55.95
2023-04-05T16:09:15.378Z,56.12
2023-04-05T23:43:42.400Z,62.19
